• Join FlightAware (Why Join?)
  • Login
  • US Flag 
12:02AM EDT


 

Airport Tracker/Info


-or-


 

Live Flight TrackerFlight Track Log ✈ CSC8954 ✈ 03-Feb-2014 ✈ ZWWW / URC - ZHCC / CGO

Flight Track Log - Related Links

Times and Time Zones

All times are in EST time to prevent confusion due to time zone crossing. See the CSC8954 flight status page for this flight to view local times or setup timezone preferences in your user account.

Time Position Orientation Groundspeed Altitude Reporting Facility
EST Latitude Longitude Course Direction KTS MPH feet Rate Location/Type
11:07AM 43.7798 88.0884 106° East  Level Estimated
11:08AM 43.7475 88.2415 106° East  Level Estimated
11:09AM 43.7150 88.3945 106° East  Level Estimated
11:10AM 43.6822 88.5472 106° East  Level Estimated
11:11AM 43.6493 88.6999 107° East  Level Estimated
11:12AM 43.6162 88.8523 107° East  Level Estimated
11:13AM 43.5828 89.0046 107° East  Level Estimated
11:14AM 43.5493 89.1567 107° East  Level Estimated
11:15AM 43.5155 89.3087 107° East  Level Estimated
11:16AM 43.4816 89.4605 107° East  Level Estimated
11:17AM 43.4474 89.6121 107° East  Level Estimated
11:18AM 43.4131 89.7635 107° East  Level Estimated
11:19AM 43.3785 89.9148 107° East  Level Estimated
11:20AM 43.3438 90.0659 108° East  Level Estimated
11:21AM 43.3088 90.2168 108° East  Level Estimated
11:22AM 43.2737 90.3675 108° East  Level Estimated
11:23AM 43.2383 90.5181 108° East  Level Estimated
11:24AM 43.2028 90.6685 108° East  Level Estimated
11:25AM 43.1670 90.8187 108° East  Level Estimated
11:26AM 43.1311 90.9688 108° East  Level Estimated
11:27AM 43.0950 91.1186 108° East  Level Estimated
11:28AM 43.0587 91.2683 108° East  Level Estimated
11:29AM 43.0221 91.4178 108° East  Level Estimated
11:30AM 42.9854 91.5671 109° East  Level Estimated
11:31AM 42.9485 91.7163 109° East  Level Estimated
11:32AM 42.9114 91.8653 109° East  Level Estimated
11:33AM 42.8741 92.0141 109° East  Level Estimated
11:34AM 42.8366 92.1627 109° East  Level Estimated
11:35AM 42.7989 92.3111 109° East  Level Estimated
11:36AM 42.7611 92.4594 109° East  Level Estimated
11:37AM 42.7230 92.6074 109° East  Level Estimated
11:38AM 42.6848 92.7553 109° East  Level Estimated
11:39AM 42.6463 92.9030 109° East  Level Estimated
11:40AM 42.6077 93.0505 110° East  Level Estimated
11:41AM 42.5689 93.1979 110° East  Level Estimated
11:42AM 42.5299 93.3450 110° East  Level Estimated
11:43AM 42.4907 93.4920 110° East  Level Estimated
11:44AM 42.4513 93.6388 110° East  Level Estimated
11:45AM 42.4117 93.7854 110° East  Level Estimated
11:46AM 42.3719 93.9318 110° East  Level Estimated
11:47AM 42.3320 94.0780 110° East  Level Estimated
11:48AM 42.2919 94.2241 110° East  Level Estimated
11:49AM 42.2515 94.3700 110° East  Level Estimated
11:50AM 42.2110 94.5156 111° Southeast  Level Estimated
11:51AM 42.1704 94.6611 111° Southeast  Level Estimated
11:52AM 42.1295 94.8064 111° Southeast  Level Estimated
11:53AM 42.0885 94.9515 111° Southeast  Level Estimated
11:54AM 42.0472 95.0965 111° Southeast  Level Estimated
11:55AM 42.0058 95.2412 111° Southeast  Level Estimated
11:56AM 41.9642 95.3857 111° Southeast  Level Estimated
11:57AM 41.9224 95.5301 111° Southeast  Level Estimated
11:58AM 41.8805 95.6742 111° Southeast  Level Estimated
11:59AM 41.8383 95.8182 111° Southeast  Level Estimated
12:00PM 41.7960 95.9620 112° Southeast  Level Estimated
12:01PM 41.7535 96.1056 112° Southeast  Level Estimated
12:02PM 41.7108 96.2490 112° Southeast  Level Estimated
12:03PM 41.6680 96.3923 112° Southeast  Level Estimated
12:04PM 41.6249 96.5353 112° Southeast  Level Estimated
12:05PM 41.5817 96.6781 112° Southeast  Level Estimated
12:06PM 41.5383 96.8207 112° Southeast  Level Estimated
12:07PM 41.4948 96.9632 112° Southeast  Level Estimated
12:08PM 41.4510 97.1055 112° Southeast  Level Estimated
12:09PM 41.4071 97.2475 112° Southeast  Level Estimated
12:10PM 41.3630 97.3894 112° Southeast  Level Estimated
12:11PM 41.3188 97.5311 113° Southeast  Level Estimated
12:12PM 41.2744 97.6726 113° Southeast  Level Estimated
12:13PM 41.2298 97.8139 113° Southeast  Level Estimated
12:14PM 41.1850 97.9550 113° Southeast  Level Estimated
12:15PM 41.1400 98.0959 113° Southeast  Level Estimated
12:16PM 41.0949 98.2366 113° Southeast  Level Estimated
12:17PM 41.0496 98.3771 113° Southeast  Level Estimated
12:18PM 41.0042 98.5174 113° Southeast  Level Estimated
12:19PM 40.9585 98.6576 113° Southeast  Level Estimated
12:20PM 40.9127 98.7975 113° Southeast  Level Estimated
12:21PM 40.8667 98.9373 113° Southeast  Level Estimated
12:22PM 40.8206 99.0768 114° Southeast  Level Estimated
12:23PM 40.7743 99.2162 114° Southeast  Level Estimated
12:24PM 40.7278 99.3553 114° Southeast  Level Estimated
12:25PM 40.6812 99.4943 114° Southeast  Level Estimated
12:26PM 40.6344 99.6331 114° Southeast  Level Estimated
12:27PM 40.5874 99.7717 114° Southeast  Level Estimated
12:28PM 40.5402 99.9101 114° Southeast  Level Estimated
12:29PM 40.4929 100.0482 114° Southeast  Level Estimated
12:30PM 40.4455 100.1862 114° Southeast  Level Estimated
12:31PM 40.3978 100.3241 114° Southeast  Level Estimated
12:32PM 40.3500 100.4617 114° Southeast  Level Estimated
12:33PM 40.3021 100.5991 115° Southeast  Level Estimated
12:34PM 40.2540 100.7363 115° Southeast  Level Estimated
12:35PM 40.2057 100.8733 115° Southeast  Level Estimated
12:36PM 40.1572 101.0101 115° Southeast  Level Estimated
12:37PM 40.1086 101.1468 115° Southeast  Level Estimated
12:38PM 40.0598 101.2832 115° Southeast  Level Estimated
12:39PM 40.0109 101.4194 115° Southeast  Level Estimated
12:40PM 39.9618 101.5555 115° Southeast  Level Estimated
12:41PM 39.9126 101.6913 115° Southeast  Level Estimated
12:42PM 39.8632 101.8270 115° Southeast  Level Estimated
12:43PM 39.8136 101.9624 115° Southeast  Level Estimated
12:44PM 39.7639 102.0977 116° Southeast  Level Estimated
12:45PM 39.7140 102.2327 116° Southeast  Level Estimated
12:46PM 39.6640 102.3676 116° Southeast  Level Estimated
12:47PM 39.6138 102.5023 116° Southeast  Level Estimated
12:48PM 39.5635 102.6368 116° Southeast  Level Estimated
12:49PM 39.5130 102.7710 116° Southeast  Level Estimated
12:50PM 39.4623 102.9051 116° Southeast  Level Estimated
12:51PM 39.4115 103.0390 116° Southeast  Level Estimated
12:52PM 39.3606 103.1727 116° Southeast  Level Estimated
12:53PM 39.3095 103.3062 116° Southeast  Level Estimated
12:54PM 39.2582 103.4395 116° Southeast  Level Estimated
12:55PM 39.2068 103.5726 116° Southeast  Level Estimated
12:56PM 39.1552 103.7056 117° Southeast  Level Estimated
12:57PM 39.1035 103.8383 117° Southeast  Level Estimated
12:58PM 39.0516 103.9708 117° Southeast  Level Estimated
12:59PM 38.9996 104.1031 117° Southeast  Level Estimated
01:00PM 38.9474 104.2353 117° Southeast  Level Estimated
01:01PM 38.8951 104.3672 117° Southeast  Level Estimated
01:02PM 38.8427 104.4990 117° Southeast  Level Estimated
01:03PM 38.7901 104.6305 117° Southeast  Level Estimated
01:04PM 38.7373 104.7619 117° Southeast  Level Estimated
01:05PM 38.6844 104.8931 117° Southeast  Level Estimated
01:06PM 38.6314 105.0240 117° Southeast  Level Estimated
01:07PM 38.5782 105.1548 117° Southeast  Level Estimated
01:08PM 38.5248 105.2854 118° Southeast  Level Estimated
01:09PM 38.4713 105.4158 118° Southeast  Level Estimated
01:10PM 38.4177 105.5460 118° Southeast  Level Estimated
01:11PM 38.3639 105.6760 118° Southeast  Level Estimated
01:12PM 38.3100 105.8058 118° Southeast  Level Estimated
01:13PM 38.2559 105.9354 118° Southeast  Level Estimated
01:14PM 38.2017 106.0648 118° Southeast  Level Estimated
01:15PM 38.1474 106.1941 118° Southeast  Level Estimated
01:16PM 38.0929 106.3231 118° Southeast  Level Estimated
01:17PM 38.0383 106.4519 118° Southeast  Level Estimated
01:18PM 37.9835 106.5806 118° Southeast  Level Estimated
01:19PM 37.9286 106.7091 118° Southeast  Level Estimated
01:20PM 37.8735 106.8373 119° Southeast  Level Estimated
01:21PM 37.8184 106.9654 119° Southeast  Level Estimated
01:22PM 37.7630 107.0933 119° Southeast  Level Estimated
01:23PM 37.7076 107.2210 119° Southeast  Level Estimated
01:24PM 37.6520 107.3485 119° Southeast  Level Estimated
01:25PM 37.5962 107.4758 119° Southeast  Level Estimated
01:26PM 37.5404 107.6029 119° Southeast  Level Estimated
01:27PM 37.4843 107.7298 119° Southeast  Level Estimated
01:28PM 37.4282 107.8566 119° Southeast  Level Estimated
01:29PM 37.3719 107.9831 119° Southeast  Level Estimated
01:30PM 37.3155 108.1095 119° Southeast  Level Estimated
01:31PM 37.2590 108.2357 119° Southeast  Level Estimated
01:32PM 37.2023 108.3616 119° Southeast  Level Estimated
01:33PM 37.1455 108.4874 120° Southeast  Level Estimated
01:34PM 37.0885 108.6130 120° Southeast  Level Estimated
01:35PM 37.0314 108.7384 120° Southeast  Level Estimated
01:36PM 36.9742 108.8637 120° Southeast  Level Estimated
01:37PM 36.9169 108.9887 120° Southeast  Level Estimated
01:38PM 36.8594 109.1135 120° Southeast  Level Estimated
01:39PM 36.8018 109.2382 120° Southeast  Level Estimated
01:40PM 36.7441 109.3627 120° Southeast  Level Estimated
01:41PM 36.6862 109.4870 120° Southeast  Level Estimated
01:42PM 36.6282 109.6111 120° Southeast  Level Estimated
01:43PM 36.5701 109.7350 120° Southeast  Level Estimated
01:44PM 36.5118 109.8587 120° Southeast  Level Estimated
01:45PM 36.4535 109.9822 120° Southeast  Level Estimated
01:46PM 36.3950 110.1056 120° Southeast  Level Estimated
01:47PM 36.3363 110.2288 121° Southeast  Level Estimated
01:48PM 36.2776 110.3517 121° Southeast  Level Estimated
01:49PM 36.2187 110.4745 121° Southeast  Level Estimated
01:50PM 36.1597 110.5972 121° Southeast  Level Estimated
01:51PM 36.1006 110.7196 121° Southeast  Level Estimated
01:52PM 36.0413 110.8418 121° Southeast  Level Estimated
01:53PM 35.9819 110.9639 121° Southeast  Level Estimated
01:54PM 35.9224 111.0857 121° Southeast  Level Estimated
01:55PM 35.8628 111.2074 121° Southeast  Level Estimated
01:56PM 35.8030 111.3289 121° Southeast  Level Estimated
01:57PM 35.7431 111.4503 121° Southeast  Level Estimated
01:58PM 35.6832 111.5714 121° Southeast  Level Estimated
01:59PM 35.6230 111.6924 121° Southeast  Level Estimated
02:00PM 35.5628 111.8131 121° Southeast  Level Estimated
02:01PM 35.5024 111.9337 122° Southeast  Level Estimated
02:02PM 35.4420 112.0542 122° Southeast  Level Estimated
02:03PM 35.3814 112.1744 122° Southeast  Level Estimated
02:04PM 35.3206 112.2944 122° Southeast  Level Estimated
02:05PM 35.2598 112.4143 122° Southeast  Level Estimated
02:06PM 35.1989 112.5340 122° Southeast  Level Estimated
02:07PM 35.1378 112.6535 122° Southeast  Level Estimated
02:08PM 35.0766 112.7729 122° Southeast  Level Estimated
02:09PM 35.0153 112.8920 122° Southeast  Level Estimated
02:10PM 34.9539 113.0110 122° Southeast  Level Estimated
02:11PM 34.8924 113.1298 122° Southeast  Level Estimated
02:12PM 34.8307 113.2484 122° Southeast  Level Estimated
02:13PM 34.7689 113.3669 122° Southeast  Level Estimated
02:14PM 34.7071 113.4851 122° Southeast  Level Estimated
02:15PM 34.6451 113.6032 123° Southeast  Level Estimated
02:16PM 34.5830 113.7211 123° Southeast  Level Estimated
02:17PM 34.5207 113.8389 123° Southeast  Level Estimated
02:18PM 34.5197 113.8409 123° Southeast  Level Estimated
02:19PM 34.5197 113.8409 338° Northwest  Level Estimated
02:20PM 34.5197 113.8409 338° Northwest  Level Estimated
02:21PM 34.5197 113.8409 338° Northwest  Level Estimated
02:22PM 34.5197 113.8409 338° Northwest  Level Estimated
02:23PM 34.5197 113.8409 338° Northwest  Level Estimated
02:24PM 34.5197 113.8409 338° Northwest  Level Estimated
02:25PM 34.5197 113.8409 338° Northwest  Level Estimated
02:26PM 34.5197 113.8409 338° Northwest  Level Estimated
02:27PM 34.5197 113.8409 338° Northwest  Level Estimated
02:28PM 34.5197 113.8409 338° Northwest  Level Estimated
02:29PM 34.5197 113.8409 338° Northwest  Level Estimated
02:30PM 34.5197 113.8409 338° Northwest  Level Estimated
02:31PM 34.5197 113.8409 338° Northwest  Level Estimated